createdAt,value
2023-05-14T00:00:00.765Z,8.18
2023-05-14T00:02:27.577Z,8.02
2023-05-14T00:04:54.283Z,7.80
2023-05-14T00:07:20.966Z,7.38
2023-05-14T00:09:47.627Z,7.55
2023-05-14T00:12:14.315Z,7.90
2023-05-14T00:14:41.030Z,8.30
2023-05-14T00:17:07.620Z,8.50
2023-05-14T00:19:34.215Z,8.13
2023-05-14T00:22:01.014Z,8.38
2023-05-14T00:24:27.759Z,8.00
2023-05-14T00:26:54.433Z,8.20
2023-05-14T00:29:21.081Z,7.78
2023-05-14T00:31:47.760Z,7.55
2023-05-14T00:34:14.509Z,8.60
2023-05-14T00:36:41.145Z,8.40
2023-05-14T00:39:07.825Z,8.45
2023-05-14T00:41:34.527Z,9.45
2023-05-14T00:44:01.176Z,9.38
2023-05-14T00:46:27.903Z,12.82
2023-05-14T00:48:54.609Z,10.15
2023-05-14T00:51:21.933Z,10.10
2023-05-14T00:53:48.867Z,10.25
2023-05-14T00:56:15.748Z,10.27
2023-05-14T00:58:42.398Z,10.18
2023-05-14T01:01:09.207Z,11.35
2023-05-14T01:03:35.920Z,10.20
2023-05-14T01:06:10.675Z,10.55
2023-05-14T01:11:10.132Z,10.10
2023-05-14T01:13:40.171Z,8.80
2023-05-14T01:16:06.818Z,9.35
2023-05-14T01:18:33.582Z,9.52
2023-05-14T01:21:00.204Z,9.93
2023-05-14T01:23:26.862Z,9.93
2023-05-14T01:25:53.459Z,10.00
2023-05-14T01:28:21.918Z,9.43
2023-05-14T01:31:02.498Z,9.90
2023-05-14T01:33:29.590Z,8.70
2023-05-14T01:35:56.264Z,8.45
2023-05-14T01:38:23.161Z,9.40
2023-05-14T01:40:49.768Z,7.85
2023-05-14T01:43:16.553Z,8.20
2023-05-14T01:45:43.785Z,8.77
2023-05-14T01:48:10.783Z,9.80
2023-05-14T01:50:37.517Z,8.98
2023-05-14T01:53:04.167Z,10.40
2023-05-14T01:55:30.821Z,10.10
2023-05-14T01:57:57.419Z,9.05
2023-05-14T02:00:26.174Z,9.13
2023-05-14T02:02:53.137Z,9.13
2023-05-14T02:05:19.909Z,9.98
2023-05-14T02:07:46.558Z,10.07
2023-05-14T02:10:13.307Z,9.57
2023-05-14T02:12:40.019Z,9.50
2023-05-14T02:15:08.925Z,8.35
2023-05-14T02:17:35.668Z,8.13
2023-05-14T02:20:02.378Z,8.43
2023-05-14T02:22:29.062Z,9.32
2023-05-14T02:24:56.145Z,9.15
2023-05-14T02:27:22.787Z,9.48
2023-05-14T02:29:49.402Z,7.80
2023-05-14T02:32:16.061Z,7.72
2023-05-14T02:34:42.752Z,7.88
2023-05-14T02:37:09.389Z,7.95
2023-05-14T02:39:36.026Z,7.75
2023-05-14T02:42:02.770Z,7.93
2023-05-14T02:44:31.844Z,6.55
2023-05-14T02:46:58.614Z,7.78
2023-05-14T02:49:25.347Z,7.25
2023-05-14T02:51:54.305Z,7.25
2023-05-14T02:54:20.952Z,7.07
2023-05-14T02:56:47.755Z,7.10
2023-05-14T02:59:14.530Z,7.38
2023-05-14T03:01:41.826Z,7.03
2023-05-14T03:04:08.876Z,7.85
2023-05-14T03:06:35.574Z,6.93
2023-05-14T03:09:02.240Z,7.75
2023-05-14T03:11:28.874Z,8.27
2023-05-14T03:13:55.533Z,8.23
2023-05-14T03:16:22.777Z,8.75
2023-05-14T03:18:49.475Z,9.55
2023-05-14T03:21:16.171Z,8.90
2023-05-14T03:23:42.864Z,10.38
2023-05-14T03:26:09.470Z,8.75
2023-05-14T03:28:36.112Z,8.82
2023-05-14T03:31:02.849Z,7.88
2023-05-14T03:33:29.556Z,7.78
2023-05-14T03:35:56.156Z,8.25
2023-05-14T03:38:22.819Z,9.40
2023-05-14T03:40:49.428Z,9.85
2023-05-14T03:43:16.453Z,8.60
2023-05-14T03:45:43.141Z,10.23
2023-05-14T03:48:09.899Z,9.73
2023-05-14T03:50:36.716Z,10.48
2023-05-14T03:53:03.430Z,9.55
2023-05-14T03:55:30.092Z,10.13
2023-05-14T03:57:56.818Z,10.15
2023-05-14T04:00:23.704Z,8.95
2023-05-14T04:02:50.726Z,8.95
2023-05-14T04:05:17.535Z,8.55
2023-05-14T04:07:45.920Z,8.10
2023-05-14T04:10:13.510Z,8.48
2023-05-14T04:12:40.144Z,9.02
2023-05-14T04:15:07.432Z,10.40
2023-05-14T04:17:35.047Z,8.98
2023-05-14T04:20:02.028Z,9.52
2023-05-14T04:22:28.725Z,9.95
2023-05-14T04:24:55.320Z,9.88
2023-05-14T04:27:22.314Z,11.55
2023-05-14T04:29:49.697Z,11.00
2023-05-14T04:32:16.452Z,11.15
2023-05-14T04:34:43.130Z,11.05
2023-05-14T04:37:10.175Z,10.73
2023-05-14T04:39:36.849Z,9.93
2023-05-14T04:42:03.759Z,12.35
2023-05-14T04:44:30.531Z,12.10
2023-05-14T04:46:57.292Z,12.32
2023-05-14T04:49:23.936Z,11.93
2023-05-14T04:51:50.820Z,11.20
2023-05-14T04:54:17.511Z,11.07
2023-05-14T04:56:44.210Z,10.23
2023-05-14T04:59:10.883Z,10.73
2023-05-14T05:01:37.709Z,9.20
2023-05-14T05:04:04.529Z,10.80
2023-05-14T05:06:31.715Z,10.25
2023-05-14T05:08:59.992Z,11.45
2023-05-14T05:11:27.953Z,10.80
2023-05-14T05:13:54.613Z,10.65
2023-05-14T05:16:21.339Z,10.85
2023-05-14T05:18:48.057Z,11.02
2023-05-14T05:21:14.773Z,10.65
2023-05-14T05:23:41.563Z,10.10
2023-05-14T05:26:08.250Z,11.05
2023-05-14T05:28:34.902Z,10.35
2023-05-14T05:31:01.600Z,11.65
2023-05-14T05:33:28.342Z,10.40
2023-05-14T05:35:55.041Z,10.50
2023-05-14T05:38:21.718Z,8.75
2023-05-14T05:40:48.469Z,9.65
2023-05-14T05:43:15.534Z,8.98
2023-05-14T05:45:42.163Z,11.05
2023-05-14T05:48:08.810Z,11.27
2023-05-14T05:50:35.577Z,12.02
2023-05-14T05:53:02.371Z,16.90
2023-05-14T05:55:29.429Z,18.05
2023-05-14T05:57:56.302Z,16.42
2023-05-14T06:00:24.036Z,16.95
2023-05-14T06:02:50.987Z,13.23
2023-05-14T06:05:17.760Z,14.02
2023-05-14T06:07:44.489Z,13.75
2023-05-14T06:10:11.190Z,13.10
2023-05-14T06:12:37.879Z,14.02
2023-05-14T06:15:04.810Z,13.40
2023-05-14T06:17:31.617Z,14.93
2023-05-14T06:19:58.255Z,15.57
2023-05-14T06:22:24.954Z,14.32
2023-05-14T06:24:51.665Z,14.73
2023-05-14T06:27:18.321Z,15.13
2023-05-14T06:29:45.021Z,17.15
2023-05-14T06:32:15.473Z,16.25
2023-05-14T06:34:42.733Z,16.45
2023-05-14T06:37:09.856Z,16.60
2023-05-14T06:39:37.353Z,16.75
2023-05-14T06:42:04.338Z,20.48
2023-05-14T06:44:31.119Z,22.17
2023-05-14T06:46:57.722Z,20.40
2023-05-14T06:49:24.480Z,18.95
2023-05-14T06:51:51.166Z,18.48
2023-05-14T06:54:17.891Z,17.85
2023-05-14T06:56:44.581Z,17.58
2023-05-14T06:59:11.289Z,17.23
2023-05-14T07:01:37.966Z,18.45
2023-05-14T07:04:04.751Z,18.65
2023-05-14T07:06:32.599Z,18.35
2023-05-14T07:08:59.485Z,19.63
2023-05-14T07:11:26.262Z,19.80
2023-05-14T07:13:53.007Z,20.27
2023-05-14T07:16:19.855Z,17.35
2023-05-14T07:18:46.639Z,16.50
2023-05-14T07:21:13.304Z,16.27
2023-05-14T07:23:39.973Z,15.05
2023-05-14T07:26:06.869Z,16.40
2023-05-14T07:28:33.690Z,13.98
2023-05-14T07:31:00.933Z,13.95
2023-05-14T07:33:27.654Z,14.43
2023-05-14T07:35:54.366Z,13.60
2023-05-14T07:38:21.039Z,13.27
2023-05-14T07:40:47.750Z,15.32
2023-05-14T07:43:14.399Z,15.60
2023-05-14T07:45:41.226Z,15.98
2023-05-14T07:48:08.118Z,13.05
2023-05-14T07:50:34.887Z,12.15
2023-05-14T07:53:01.502Z,12.40
2023-05-14T07:55:28.201Z,12.80
2023-05-14T07:57:54.864Z,13.35
2023-05-14T08:00:21.680Z,13.75
2023-05-14T08:02:49.253Z,14.20
2023-05-14T08:05:16.682Z,16.02
2023-05-14T08:07:43.521Z,16.70
2023-05-14T08:10:10.416Z,17.27
2023-05-14T08:12:37.201Z,15.93
2023-05-14T08:15:04.307Z,16.25
2023-05-14T08:17:31.195Z,16.13
2023-05-14T08:19:57.834Z,10.13
2023-05-14T08:22:24.605Z,12.70
2023-05-14T08:24:51.222Z,14.02
2023-05-14T08:27:17.860Z,13.98
2023-05-14T08:29:44.590Z,13.23
2023-05-14T08:32:21.928Z,12.15
2023-05-14T08:34:50.852Z,11.25
2023-05-14T08:37:17.512Z,11.98
2023-05-14T08:39:44.218Z,12.85
2023-05-14T08:42:12.712Z,11.38
2023-05-14T08:44:42.715Z,10.98
2023-05-14T08:47:09.375Z,12.15
2023-05-14T08:49:42.805Z,10.25
2023-05-14T08:52:09.660Z,12.00
2023-05-14T08:54:36.528Z,5.28
2023-05-14T08:57:07.036Z,8.63
2023-05-14T08:59:33.747Z,5.60
2023-05-14T09:02:01.916Z,6.80
2023-05-14T09:04:29.650Z,6.78
2023-05-14T09:06:56.353Z,6.82
2023-05-14T09:09:23.264Z,7.35
2023-05-14T09:11:50.733Z,7.65
2023-05-14T09:14:17.403Z,7.07
2023-05-14T09:16:45.416Z,7.70
2023-05-14T09:19:12.802Z,9.48
2023-05-14T09:21:40.285Z,10.43
2023-05-14T09:24:07.452Z,11.77
2023-05-14T09:26:34.624Z,11.27
2023-05-14T09:29:04.586Z,9.90
2023-05-14T09:31:32.236Z,10.20
2023-05-14T09:33:59.299Z,13.25
2023-05-14T09:36:27.263Z,13.55
2023-05-14T09:38:56.914Z,9.10
2023-05-14T09:41:23.611Z,9.77
2023-05-14T09:43:53.304Z,7.72
2023-05-14T09:46:19.917Z,8.15
2023-05-14T09:48:46.683Z,8.73
2023-05-14T09:51:13.610Z,18.15
2023-05-14T09:53:41.302Z,14.10
2023-05-14T09:56:07.942Z,11.77
2023-05-14T09:58:34.618Z,11.82
2023-05-14T10:01:01.839Z,11.70
2023-05-14T10:03:29.891Z,9.02
2023-05-14T10:05:58.471Z,7.15
2023-05-14T10:08:27.401Z,6.07
2023-05-14T10:10:54.828Z,7.18
2023-05-14T10:13:24.158Z,6.88
2023-05-14T10:16:01.190Z,9.85
2023-05-14T10:18:27.916Z,6.70
2023-05-14T10:21:06.367Z,5.93
2023-05-14T10:23:33.768Z,5.03
2023-05-14T10:26:00.377Z,6.00
2023-05-14T10:28:27.588Z,6.13
2023-05-14T10:30:54.441Z,5.32
2023-05-14T10:33:21.352Z,5.57
2023-05-14T10:36:07.457Z,4.72
2023-05-14T10:38:35.689Z,4.57
2023-05-14T10:41:03.136Z,5.60
2023-05-14T10:43:30.955Z,4.68
2023-05-14T10:45:58.441Z,3.92
2023-05-14T10:48:25.401Z,4.47
2023-05-14T10:50:52.071Z,6.57
2023-05-14T10:53:19.085Z,4.00
2023-05-14T10:55:46.002Z,3.45
2023-05-14T10:58:12.731Z,4.03
2023-05-14T11:00:39.459Z,3.25
2023-05-14T11:03:06.789Z,3.10
2023-05-14T11:05:33.852Z,3.60
2023-05-14T11:08:00.669Z,3.30
2023-05-14T11:10:29.650Z,3.95
2023-05-14T11:12:56.538Z,3.72
2023-05-14T11:15:24.984Z,3.50
2023-05-14T11:17:52.273Z,3.58
2023-05-14T11:20:19.222Z,3.97
2023-05-14T11:22:47.882Z,4.28
2023-05-14T11:25:14.828Z,3.78
2023-05-14T11:27:45.483Z,3.35
2023-05-14T11:30:13.160Z,3.53
2023-05-14T11:32:39.985Z,4.18
2023-05-14T11:35:07.162Z,4.70
2023-05-14T11:37:33.965Z,4.60
2023-05-14T11:40:01.028Z,4.40
2023-05-14T11:42:27.726Z,4.00
2023-05-14T11:44:54.344Z,4.70
2023-05-14T11:47:21.465Z,3.90
2023-05-14T11:49:48.659Z,4.18
2023-05-14T11:52:15.994Z,3.97
2023-05-14T11:54:43.783Z,3.97
2023-05-14T11:57:12.637Z,3.58
2023-05-14T11:59:39.850Z,4.15
2023-05-14T12:02:10.389Z,4.50
2023-05-14T12:04:37.148Z,4.68
2023-05-14T12:07:12.227Z,3.78
2023-05-14T12:09:45.242Z,3.92
2023-05-14T12:12:12.506Z,3.55
2023-05-14T12:14:41.633Z,4.47
2023-05-14T12:17:20.291Z,4.07
2023-05-14T12:19:48.450Z,3.88
2023-05-14T12:22:16.368Z,4.47
2023-05-14T12:25:03.769Z,2.88
2023-05-14T12:27:30.635Z,3.53
2023-05-14T12:30:19.123Z,4.07
2023-05-14T12:32:48.932Z,4.15
2023-05-14T12:35:15.848Z,4.95
2023-05-14T12:37:43.064Z,3.50
2023-05-14T12:40:10.357Z,3.50
2023-05-14T12:42:37.227Z,3.60
2023-05-14T12:45:07.378Z,3.80
2023-05-14T12:47:34.793Z,4.18
2023-05-14T12:50:01.476Z,4.18
2023-05-14T12:52:37.971Z,4.10
2023-05-14T12:55:06.926Z,4.60
2023-05-14T12:57:35.394Z,7.93
2023-05-14T13:00:02.540Z,5.80
2023-05-14T13:02:29.824Z,4.63
2023-05-14T13:04:56.535Z,3.53
2023-05-14T13:07:23.543Z,3.72
2023-05-14T13:09:50.180Z,2.63
2023-05-14T13:12:16.924Z,3.28
2023-05-14T13:14:43.605Z,2.75
2023-05-14T13:17:10.360Z,2.55
2023-05-14T13:19:37.587Z,2.60
2023-05-14T13:22:04.536Z,3.13
2023-05-14T13:24:31.270Z,2.38
2023-05-14T13:26:58.405Z,2.75
2023-05-14T13:29:25.084Z,2.92
2023-05-14T13:31:51.797Z,3.17
2023-05-14T13:34:18.863Z,3.50
2023-05-14T13:36:47.023Z,3.33
2023-05-14T13:39:14.559Z,3.08
2023-05-14T13:41:41.461Z,2.80
2023-05-14T13:44:08.078Z,4.75
2023-05-14T13:46:34.856Z,3.33
2023-05-14T13:49:01.650Z,2.92
2023-05-14T13:51:28.930Z,3.05
2023-05-14T13:53:55.898Z,3.30
2023-05-14T13:56:22.864Z,5.13
2023-05-14T13:58:49.690Z,3.42
2023-05-14T14:01:16.826Z,4.35
2023-05-14T14:03:43.636Z,3.13
2023-05-14T14:06:10.890Z,4.28
2023-05-14T14:08:37.601Z,12.02
2023-05-14T14:11:04.714Z,3.80
2023-05-14T14:13:31.406Z,3.22
2023-05-14T14:16:06.292Z,3.10
2023-05-14T14:18:33.295Z,13.75
2023-05-14T14:20:59.910Z,5.10
2023-05-14T14:23:26.707Z,4.10
2023-05-14T14:25:53.677Z,3.53
2023-05-14T14:28:20.460Z,2.33
2023-05-14T14:30:50.284Z,2.88
2023-05-14T14:33:17.189Z,3.65
2023-05-14T14:35:44.072Z,3.88
2023-05-14T14:38:11.025Z,4.10
2023-05-14T14:40:37.765Z,4.22
2023-05-14T14:43:04.591Z,5.05
2023-05-14T14:45:31.695Z,4.80
2023-05-14T14:48:37.477Z,7.20
2023-05-14T14:51:04.651Z,8.93
2023-05-14T14:53:31.486Z,4.05
2023-05-14T14:55:58.372Z,5.05
2023-05-14T14:58:26.076Z,5.45
2023-05-14T15:00:56.502Z,5.88
2023-05-14T15:03:23.989Z,5.57
2023-05-14T15:05:53.919Z,4.32
2023-05-14T15:08:24.562Z,4.82
2023-05-14T15:10:51.600Z,4.80
2023-05-14T15:13:19.291Z,4.55
2023-05-14T15:15:48.407Z,4.13
2023-05-14T15:18:15.092Z,4.68
2023-05-14T15:20:42.032Z,5.30
2023-05-14T15:23:09.065Z,5.47
2023-05-14T15:25:36.444Z,5.15
2023-05-14T15:28:03.157Z,6.43
2023-05-14T15:30:30.372Z,5.18
2023-05-14T15:32:57.175Z,7.63
2023-05-14T15:35:24.129Z,3.47
2023-05-14T15:37:51.097Z,3.35
2023-05-14T15:40:19.074Z,3.50
2023-05-14T15:42:47.075Z,4.30
2023-05-14T15:45:13.936Z,4.35
2023-05-14T15:47:41.390Z,4.43
2023-05-14T15:50:08.655Z,3.78
2023-05-14T15:52:36.505Z,4.15
2023-05-14T15:55:04.544Z,2.80
2023-05-14T15:57:31.792Z,3.42
2023-05-14T15:59:58.406Z,3.97
2023-05-14T16:02:25.120Z,4.13
2023-05-14T16:04:51.790Z,4.18
2023-05-14T16:07:18.550Z,4.20
2023-05-14T16:09:45.225Z,4.43
2023-05-14T16:12:12.521Z,4.55
2023-05-14T16:14:41.764Z,4.80
2023-05-14T16:17:08.785Z,5.82
2023-05-14T16:19:35.413Z,5.20
2023-05-14T16:22:02.263Z,5.95
2023-05-14T16:24:28.926Z,7.35
2023-05-14T16:26:56.131Z,6.13
2023-05-14T16:29:22.921Z,6.45
2023-05-14T16:31:49.841Z,6.80
2023-05-14T16:34:16.769Z,6.53
2023-05-14T16:36:43.399Z,6.45
2023-05-14T16:39:11.517Z,6.80
2023-05-14T16:41:38.110Z,6.43
2023-05-14T16:44:04.961Z,5.63
2023-05-14T16:46:32.389Z,5.13
2023-05-14T16:48:59.248Z,5.35
2023-05-14T16:51:25.863Z,5.47
2023-05-14T16:53:54.701Z,5.82
2023-05-14T16:56:22.525Z,6.07
2023-05-14T16:58:49.363Z,5.75
2023-05-14T17:01:16.110Z,6.65
2023-05-14T17:03:43.611Z,6.53
2023-05-14T17:06:13.352Z,7.18
2023-05-14T17:08:39.991Z,9.55
2023-05-14T17:11:06.714Z,9.10
2023-05-14T17:13:33.530Z,10.35
2023-05-14T17:16:00.687Z,9.20
2023-05-14T17:18:27.522Z,8.07
2023-05-14T17:20:54.228Z,8.88
2023-05-14T17:23:20.969Z,9.45
2023-05-14T17:25:47.881Z,9.80
2023-05-14T17:28:14.522Z,13.98
2023-05-14T17:30:41.772Z,14.73
2023-05-14T17:33:08.702Z,9.45
2023-05-14T17:35:36.436Z,11.13
2023-05-14T17:38:06.032Z,9.57
2023-05-14T17:40:33.620Z,8.73
2023-05-14T17:43:00.520Z,10.63
2023-05-14T17:45:28.549Z,12.40
2023-05-14T17:47:57.364Z,10.35
2023-05-14T17:50:24.125Z,10.63
2023-05-14T17:52:54.419Z,12.40
2023-05-14T17:55:22.509Z,20.63
2023-05-14T17:57:49.649Z,14.68
2023-05-14T18:00:16.557Z,12.90
2023-05-14T18:02:43.409Z,13.25
2023-05-14T18:05:10.577Z,10.75
2023-05-14T18:07:37.331Z,14.05
2023-05-14T18:10:04.309Z,15.75
2023-05-14T18:12:31.326Z,14.43
2023-05-14T18:14:58.154Z,13.10
2023-05-14T18:17:24.960Z,14.15
2023-05-14T18:19:51.867Z,17.02
2023-05-14T18:22:20.340Z,16.42
2023-05-14T18:24:47.171Z,16.40
2023-05-14T18:27:13.949Z,15.05
2023-05-14T18:29:40.606Z,20.83
2023-05-14T18:32:07.575Z,21.17
2023-05-14T18:34:34.260Z,20.27
2023-05-14T18:37:01.129Z,18.15
2023-05-14T18:39:27.821Z,21.52
2023-05-14T18:41:55.098Z,19.65
2023-05-14T18:44:22.650Z,19.75
2023-05-14T18:46:49.376Z,17.63
2023-05-14T18:49:16.121Z,17.50
2023-05-14T18:51:42.758Z,17.40
2023-05-14T18:54:09.426Z,19.42
2023-05-14T18:56:36.812Z,20.05
2023-05-14T18:59:04.380Z,20.20
2023-05-14T19:01:31.506Z,19.60
2023-05-14T19:03:58.380Z,23.85
2023-05-14T19:06:25.230Z,20.58
2023-05-14T19:08:52.099Z,22.58
2023-05-14T19:11:18.882Z,22.98
2023-05-14T19:13:46.800Z,21.98
2023-05-14T19:16:13.494Z,16.45
2023-05-14T19:18:40.212Z,16.60
2023-05-14T19:21:06.831Z,26.70
2023-05-14T19:23:33.496Z,21.10
2023-05-14T19:26:00.179Z,13.88
2023-05-14T19:28:26.824Z,12.93
2023-05-14T19:30:53.457Z,15.02
2023-05-14T19:33:20.113Z,15.48
2023-05-14T19:35:47.432Z,14.57
2023-05-14T19:38:15.068Z,16.30
2023-05-14T19:40:43.047Z,15.95
2023-05-14T19:43:11.922Z,16.10
2023-05-14T19:45:39.094Z,13.63
2023-05-14T19:48:06.606Z,14.63
2023-05-14T19:50:33.601Z,11.10
2023-05-14T19:53:00.776Z,18.70
2023-05-14T19:55:27.477Z,11.02
2023-05-14T19:57:54.257Z,9.85
2023-05-14T20:00:22.411Z,10.93
2023-05-14T20:02:49.102Z,10.88
2023-05-14T20:05:16.633Z,10.90
2023-05-14T20:07:43.864Z,11.30
2023-05-14T20:10:10.919Z,12.15
2023-05-14T20:12:37.577Z,10.73
2023-05-14T20:15:04.659Z,10.90
2023-05-14T20:17:31.292Z,11.73
2023-05-14T20:19:58.256Z,12.77
2023-05-14T20:22:24.901Z,11.10
2023-05-14T20:24:52.726Z,13.82
2023-05-14T20:27:19.506Z,9.15
2023-05-14T20:29:47.044Z,8.65
2023-05-14T20:32:14.892Z,8.70
2023-05-14T20:34:41.539Z,8.77
2023-05-14T20:37:08.698Z,7.85
2023-05-14T20:39:35.388Z,7.28
2023-05-14T20:42:02.112Z,7.70
2023-05-14T20:44:28.750Z,8.07
2023-05-14T20:46:55.401Z,7.60
2023-05-14T20:49:22.088Z,8.65
2023-05-14T20:51:48.738Z,8.20
2023-05-14T20:54:15.543Z,6.97
2023-05-14T20:56:42.166Z,8.35
2023-05-14T20:59:09.223Z,7.80
2023-05-14T21:01:35.965Z,9.07
2023-05-14T21:04:03.371Z,8.13
2023-05-14T21:06:30.319Z,8.45
2023-05-14T21:08:56.967Z,8.60
2023-05-14T21:11:24.044Z,10.43
2023-05-14T21:13:50.737Z,11.70
2023-05-14T21:16:17.394Z,40.22
2023-05-14T21:18:44.161Z,21.38
2023-05-14T21:21:10.859Z,14.80
2023-05-14T21:23:37.584Z,13.65
2023-05-14T21:26:04.498Z,10.15
2023-05-14T21:28:31.430Z,9.00
2023-05-14T21:30:58.142Z,10.05
2023-05-14T21:33:24.801Z,9.13
2023-05-14T21:35:51.477Z,9.90
2023-05-14T21:38:18.397Z,9.93
2023-05-14T21:40:45.167Z,7.18
2023-05-14T21:43:11.823Z,7.43
2023-05-14T21:45:38.781Z,10.50
2023-05-14T21:48:05.773Z,13.18
2023-05-14T21:50:32.533Z,9.00
2023-05-14T21:52:59.162Z,8.75
2023-05-14T21:55:27.674Z,10.05
2023-05-14T21:57:54.654Z,9.27
2023-05-14T22:00:24.136Z,8.57
2023-05-14T22:02:52.353Z,9.30
2023-05-14T22:05:19.591Z,9.85
2023-05-14T22:07:46.246Z,10.02
2023-05-14T22:10:13.358Z,10.70
2023-05-14T22:12:40.310Z,8.43
2023-05-14T22:15:08.703Z,5.03
2023-05-14T22:17:35.415Z,7.50
2023-05-14T22:20:02.822Z,8.25
2023-05-14T22:22:29.455Z,9.68
2023-05-14T22:24:56.143Z,9.18
2023-05-14T22:27:23.078Z,8.50
2023-05-14T22:29:49.673Z,8.85
2023-05-14T22:32:16.335Z,8.75
2023-05-14T22:34:43.036Z,8.93
2023-05-14T22:37:09.648Z,8.55
2023-05-14T22:39:36.463Z,7.30
2023-05-14T22:42:03.112Z,8.35
2023-05-14T22:44:30.135Z,7.40
2023-05-14T22:46:57.111Z,7.63
2023-05-14T22:49:24.021Z,8.00
2023-05-14T22:51:54.186Z,8.45
2023-05-14T22:54:21.229Z,7.68
2023-05-14T22:56:47.834Z,7.50
2023-05-14T22:59:14.450Z,7.43
2023-05-14T23:01:41.235Z,6.07
2023-05-14T23:04:08.068Z,7.57
2023-05-14T23:06:34.760Z,5.95
2023-05-14T23:09:01.420Z,5.75
2023-05-14T23:11:28.189Z,6.30
2023-05-14T23:13:54.913Z,5.72
2023-05-14T23:16:21.606Z,5.72
2023-05-14T23:18:48.455Z,6.00
2023-05-14T23:21:15.276Z,5.72
2023-05-14T23:23:41.925Z,5.20
2023-05-14T23:26:08.581Z,5.30
2023-05-14T23:28:35.271Z,5.95
2023-05-14T23:31:01.911Z,5.40
2023-05-14T23:33:28.728Z,5.78
2023-05-14T23:35:55.403Z,6.15
2023-05-14T23:38:22.101Z,7.45
2023-05-14T23:40:48.993Z,7.07
2023-05-14T23:43:15.685Z,5.82
2023-05-14T23:45:42.387Z,5.63
2023-05-14T23:48:09.119Z,5.60
2023-05-14T23:50:35.758Z,5.80
2023-05-14T23:53:02.394Z,5.93
2023-05-14T23:55:29.041Z,5.25
2023-05-14T23:57:55.797Z,6.13
